createdAt,value
2023-04-02T00:01:01.811Z,101130.84
2023-04-02T00:03:44.442Z,101139.00
2023-04-02T00:06:30.166Z,101147.31
2023-04-02T00:09:04.679Z,101129.69
2023-04-02T00:11:37.470Z,101140.41
2023-04-02T00:14:13.611Z,101139.38
2023-04-02T00:16:41.852Z,101151.31
2023-04-02T00:19:16.901Z,101154.66
2023-04-02T00:21:46.462Z,101156.53
2023-04-02T00:24:17.553Z,101165.66
2023-04-02T00:26:46.847Z,101158.56
2023-04-02T00:29:16.189Z,101169.22
2023-04-02T00:31:46.564Z,101182.09
2023-04-02T00:34:32.358Z,101177.63
2023-04-02T00:37:00.042Z,101188.50
2023-04-02T00:39:30.968Z,101169.81
2023-04-02T00:42:08.082Z,101188.09
2023-04-02T00:44:43.242Z,101205.56
2023-04-02T00:47:35.682Z,101208.16
2023-04-02T00:50:18.480Z,101207.53
2023-04-02T00:52:50.033Z,101216.97
2023-04-02T00:55:39.650Z,101220.53
2023-04-02T00:58:27.757Z,101226.63
2023-04-02T01:00:54.967Z,101228.25
2023-04-02T01:03:28.665Z,101230.16
2023-04-02T01:06:03.625Z,101243.84
2023-04-02T01:09:15.083Z,101241.94
2023-04-02T01:11:42.315Z,101240.06
2023-04-02T01:14:36.002Z,101252.94
2023-04-02T01:17:20.136Z,101260.13
2023-04-02T01:19:58.298Z,101266.19
2023-04-02T01:22:53.405Z,101262.41
2023-04-02T01:25:43.391Z,101264.97
2023-04-02T01:28:19.773Z,101272.41
2023-04-02T01:30:54.536Z,101273.25
2023-04-02T01:33:31.285Z,101273.94
2023-04-02T01:36:09.165Z,101285.28
2023-04-02T01:38:57.543Z,101274.84
2023-04-02T01:41:34.489Z,101281.34
2023-04-02T01:44:09.956Z,101292.00
2023-04-02T01:46:42.204Z,101294.75
2023-04-02T01:49:15.369Z,101290.50
2023-04-02T01:51:45.828Z,101304.00
2023-04-02T01:54:16.428Z,101293.97
2023-04-02T01:56:45.548Z,101308.53
2023-04-02T01:59:14.329Z,101325.28
2023-04-02T02:01:49.097Z,101322.41
2023-04-02T02:04:17.136Z,101331.66
2023-04-02T02:06:45.647Z,101338.28
2023-04-02T02:09:19.064Z,101343.78
2023-04-02T02:11:46.203Z,101357.88
2023-04-02T02:14:18.590Z,101353.66
2023-04-02T02:16:46.942Z,101348.16
2023-04-02T02:19:24.109Z,101366.22
2023-04-02T02:21:54.387Z,101361.16
2023-04-02T02:24:26.032Z,101375.28
2023-04-02T02:27:31.121Z,101377.19
2023-04-02T02:30:53.840Z,101385.84
2023-04-02T02:33:25.499Z,101383.66
2023-04-02T02:36:03.357Z,101392.75
2023-04-02T02:38:49.413Z,101396.19
2023-04-02T02:41:38.276Z,101399.25
2023-04-02T02:44:08.318Z,101409.66
2023-04-02T02:46:43.220Z,101401.63
2023-04-02T02:49:16.324Z,101416.69
2023-04-02T02:52:01.752Z,101419.09
2023-04-02T02:54:31.606Z,101421.22
2023-04-02T02:57:03.751Z,101416.03
2023-04-02T02:59:32.080Z,101435.84
2023-04-02T03:02:01.504Z,101443.69
2023-04-02T03:04:35.638Z,101436.22
2023-04-02T03:07:05.886Z,101445.19
2023-04-02T03:09:49.678Z,101449.41
2023-04-02T03:12:47.602Z,101459.63
2023-04-02T03:16:15.128Z,101466.31
2023-04-02T03:19:14.272Z,101473.97
2023-04-02T03:22:16.404Z,101469.75
2023-04-02T03:24:53.859Z,101484.06
2023-04-02T03:27:26.425Z,101484.66
2023-04-02T03:30:27.948Z,101491.56
2023-04-02T03:33:03.765Z,101499.09
2023-04-02T03:35:59.386Z,101512.66
2023-04-02T03:38:41.925Z,101499.53
2023-04-02T03:41:11.903Z,101516.88
2023-04-02T03:44:00.950Z,101528.06
2023-04-02T03:46:51.163Z,101528.06
2023-04-02T03:49:31.939Z,101545.13
2023-04-02T03:52:03.010Z,101544.97
2023-04-02T03:54:31.154Z,101542.63
2023-04-02T03:56:59.700Z,101553.75
2023-04-02T03:59:32.851Z,101565.81
2023-04-02T04:02:11.912Z,101570.03
2023-04-02T04:04:42.055Z,101576.34
2023-04-02T04:07:22.679Z,101578.47
2023-04-02T04:09:52.489Z,101584.94
2023-04-02T04:12:34.584Z,101590.22
2023-04-02T04:15:14.107Z,101598.09
2023-04-02T04:17:51.640Z,101597.00
2023-04-02T04:20:24.355Z,101606.47
2023-04-02T04:22:55.756Z,101611.34
2023-04-02T04:25:34.199Z,101617.44
2023-04-02T04:28:10.952Z,101622.56
2023-04-02T04:30:51.580Z,101631.31
2023-04-02T04:33:25.685Z,101633.72
2023-04-02T04:36:00.286Z,101647.03
2023-04-02T04:38:39.231Z,101653.59
2023-04-02T04:41:22.432Z,101646.84
2023-04-02T04:43:59.755Z,101654.06
2023-04-02T04:46:36.797Z,101657.72
2023-04-02T04:49:25.806Z,101677.59
2023-04-02T04:51:58.524Z,101685.69
2023-04-02T04:54:27.574Z,101689.94
2023-04-02T04:57:03.129Z,101702.31
2023-04-02T04:59:45.214Z,101706.34
2023-04-02T05:02:29.557Z,101712.78
2023-04-02T05:04:56.953Z,101714.91
2023-04-02T05:07:29.731Z,101721.25
2023-04-02T05:10:19.761Z,101738.59
2023-04-02T05:13:01.867Z,101722.91
2023-04-02T05:16:06.339Z,101741.09
2023-04-02T05:18:54.071Z,101757.16
2023-04-02T05:22:03.675Z,101758.53
2023-04-02T05:24:37.754Z,101761.25
2023-04-02T05:27:46.731Z,101776.28
2023-04-02T05:30:28.849Z,101782.38
2023-04-02T05:33:19.948Z,101786.53
2023-04-02T05:35:52.026Z,101786.06
2023-04-02T05:38:27.998Z,101795.25
2023-04-02T05:41:04.941Z,101798.94
2023-04-02T05:43:35.433Z,101804.84
2023-04-02T05:46:15.447Z,101815.97
2023-04-02T05:48:45.279Z,101816.47
2023-04-02T05:51:24.066Z,101832.75
2023-04-02T05:53:59.503Z,101822.00
2023-04-02T05:56:35.041Z,101834.59
2023-04-02T05:59:31.422Z,101832.72
2023-04-02T06:02:08.396Z,101844.34
2023-04-02T06:04:55.738Z,101847.28
2023-04-02T06:07:29.606Z,101849.66
2023-04-02T06:10:05.814Z,101853.59
2023-04-02T06:12:47.675Z,101872.22
2023-04-02T06:15:17.249Z,101874.78
2023-04-02T06:18:06.508Z,101892.56
2023-04-02T06:20:34.059Z,101907.44
2023-04-02T06:23:13.624Z,101908.94
2023-04-02T06:25:53.921Z,101905.97
2023-04-02T06:28:27.864Z,101905.34
2023-04-02T06:30:59.623Z,101932.53
2023-04-02T06:33:26.910Z,101931.69
2023-04-02T06:35:55.358Z,101920.63
2023-04-02T06:38:27.533Z,101933.53
2023-04-02T06:40:59.054Z,101941.00
2023-04-02T06:43:37.321Z,101959.81
2023-04-02T06:46:16.648Z,101938.56
2023-04-02T06:48:45.633Z,101945.16
2023-04-02T06:51:16.824Z,101950.03
2023-04-02T06:53:48.535Z,101953.41
2023-04-02T06:57:01.267Z,101965.81
2023-04-02T06:59:28.445Z,101964.22
2023-04-02T07:02:06.736Z,101964.06
2023-04-02T07:04:34.313Z,101977.03
2023-04-02T07:07:01.635Z,101988.97
2023-04-02T07:09:28.832Z,101992.63
2023-04-02T07:11:56.145Z,102012.50
2023-04-02T07:14:23.293Z,102016.75
2023-04-02T07:16:52.013Z,102014.94
2023-04-02T07:19:22.652Z,102020.69
2023-04-02T07:21:49.892Z,102031.41
2023-04-02T07:24:16.963Z,102034.19
2023-04-02T07:26:44.112Z,102020.22
2023-04-02T07:29:15.885Z,102039.84
2023-04-02T07:31:43.538Z,102046.69
2023-04-02T07:34:13.692Z,102049.78
2023-04-02T07:36:41.853Z,102058.06
2023-04-02T07:39:08.945Z,102056.47
2023-04-02T07:41:54.744Z,102068.47
2023-04-02T07:44:22.200Z,102077.16
2023-04-02T07:46:49.332Z,102075.09
2023-04-02T07:49:16.675Z,102086.03
2023-04-02T07:51:43.756Z,102089.09
2023-04-02T07:54:11.527Z,102077.94
2023-04-02T07:56:38.672Z,102079.94
2023-04-02T07:59:06.254Z,102086.31
2023-04-02T08:01:35.485Z,102096.19
2023-04-02T08:04:04.911Z,102095.00
2023-04-02T08:06:32.288Z,102097.66
2023-04-02T08:08:59.664Z,102087.59
2023-04-02T08:11:27.009Z,102106.75
2023-04-02T08:13:54.079Z,102107.63
2023-04-02T08:16:21.580Z,102112.94
2023-04-02T08:18:48.623Z,102120.44
2023-04-02T08:21:16.599Z,102134.94
2023-04-02T08:23:44.149Z,102124.47
2023-04-02T08:26:17.186Z,102133.75
2023-04-02T08:28:44.245Z,102136.50
2023-04-02T08:31:11.612Z,102141.84
2023-04-02T08:33:38.642Z,102143.63
2023-04-02T08:36:06.186Z,102152.97
2023-04-02T08:38:33.472Z,102159.09
2023-04-02T08:41:02.750Z,102161.16
2023-04-02T08:43:42.088Z,102172.28
2023-04-02T08:46:18.439Z,102172.22
2023-04-02T08:48:55.251Z,102178.19
2023-04-02T08:51:28.097Z,102177.81
2023-04-02T08:53:59.860Z,102185.91
2023-04-02T08:56:33.662Z,102188.75
2023-04-02T08:59:08.370Z,102198.66
2023-04-02T09:02:14.944Z,102208.19
2023-04-02T09:04:45.797Z,102214.22
2023-04-02T09:07:16.450Z,102214.22
2023-04-02T09:09:46.973Z,102205.72
2023-04-02T09:12:34.403Z,102207.81
2023-04-02T09:15:10.726Z,102221.13
2023-04-02T09:17:50.757Z,102226.75
2023-04-02T09:20:26.620Z,102220.44
2023-04-02T09:22:54.482Z,102223.56
2023-04-02T09:25:26.878Z,102223.91
2023-04-02T09:27:56.192Z,102233.94
2023-04-02T09:30:29.794Z,102233.84
2023-04-02T09:33:01.989Z,102248.31
2023-04-02T09:35:31.216Z,102240.75
2023-04-02T09:38:07.143Z,102251.91
2023-04-02T09:41:00.776Z,102259.53
2023-04-02T09:43:34.324Z,102264.69
2023-04-02T09:46:13.576Z,102262.63
2023-04-02T09:48:45.551Z,102247.69
2023-04-02T09:51:17.226Z,102255.16
2023-04-02T09:54:04.474Z,102264.22
2023-04-02T09:56:36.099Z,102253.69
2023-04-02T09:59:15.309Z,102257.13
2023-04-02T10:01:57.060Z,102259.41
2023-04-02T10:04:44.805Z,102265.91
2023-04-02T10:07:37.405Z,102269.81
2023-04-02T10:10:30.735Z,102269.81
2023-04-02T10:13:03.706Z,102283.84
2023-04-02T10:15:41.871Z,102284.63
2023-04-02T10:18:12.131Z,102282.78
2023-04-02T10:20:50.959Z,102287.72
2023-04-02T10:23:19.596Z,102286.56
2023-04-02T10:25:57.086Z,102296.59
2023-04-02T10:28:47.081Z,102298.81
2023-04-02T10:31:27.979Z,102295.59
2023-04-02T10:34:07.182Z,102303.41
2023-04-02T10:36:48.607Z,102295.59
2023-04-02T10:39:32.579Z,102302.34
2023-04-02T10:42:26.546Z,102314.69
2023-04-02T10:45:21.921Z,102303.75
2023-04-02T10:48:06.456Z,102306.31
2023-04-02T10:50:48.831Z,102313.50
2023-04-02T10:53:21.876Z,102314.03
2023-04-02T10:55:55.103Z,102308.81
2023-04-02T10:58:31.483Z,102316.25
2023-04-02T11:01:17.656Z,102318.75
2023-04-02T11:04:25.234Z,102316.72
2023-04-02T11:07:14.090Z,102318.81
2023-04-02T11:09:45.655Z,102325.91
2023-04-02T11:12:24.487Z,102337.84
2023-04-02T11:14:54.058Z,102339.16
2023-04-02T11:17:22.335Z,102327.78
2023-04-02T11:19:49.517Z,102323.72
2023-04-02T11:22:21.039Z,102335.25
2023-04-02T11:24:48.276Z,102334.47
2023-04-02T11:27:22.017Z,102339.25
2023-04-02T11:30:05.319Z,102341.16
2023-04-02T11:32:56.238Z,102343.69
2023-04-02T11:35:37.237Z,102348.59
2023-04-02T11:38:11.153Z,102355.69
2023-04-02T11:40:41.166Z,102352.22
2023-04-02T11:43:32.995Z,102357.78
2023-04-02T11:46:16.844Z,102353.41
2023-04-02T11:48:44.498Z,102357.06
2023-04-02T11:51:21.439Z,102359.31
2023-04-02T11:53:52.044Z,102357.53
2023-04-02T11:56:22.095Z,102364.41
2023-04-02T11:59:01.660Z,102367.28
2023-04-02T12:02:06.635Z,102370.25
2023-04-02T12:04:39.605Z,102378.09
2023-04-02T12:07:37.431Z,102386.72
2023-04-02T12:10:15.790Z,102393.81
2023-04-02T12:12:43.174Z,102385.72
2023-04-02T12:15:30.211Z,102394.44
2023-04-02T12:18:26.145Z,102390.59
2023-04-02T12:20:56.246Z,102383.84
2023-04-02T12:23:36.721Z,102397.06
2023-04-02T12:26:09.096Z,102384.94
2023-04-02T12:28:38.215Z,102403.78
2023-04-02T12:31:13.491Z,102404.19
2023-04-02T12:33:42.506Z,102408.25
2023-04-02T12:36:14.407Z,102401.94
2023-04-02T12:38:58.466Z,102408.06
2023-04-02T12:41:33.292Z,102399.31
2023-04-02T12:44:02.741Z,102399.31
2023-04-02T12:46:31.719Z,102403.78
2023-04-02T12:49:20.875Z,102419.47
2023-04-02T12:51:49.368Z,102405.78
2023-04-02T12:54:18.420Z,102411.53
2023-04-02T12:56:45.716Z,102414.50
2023-04-02T12:59:30.603Z,102420.03
2023-04-02T13:02:01.486Z,102417.09
2023-04-02T13:04:28.688Z,102420.94
2023-04-02T13:06:56.398Z,102416.56
2023-04-02T13:09:34.864Z,102415.88
2023-04-02T13:12:02.974Z,102429.69
2023-04-02T13:14:30.975Z,102414.50
2023-04-02T13:16:58.072Z,102428.63
2023-04-02T13:19:33.263Z,102426.03
2023-04-02T13:22:02.903Z,102434.50
2023-04-02T13:24:32.749Z,102426.00
2023-04-02T13:27:02.047Z,102407.69
2023-04-02T13:29:34.813Z,102423.47
2023-04-02T13:32:13.014Z,102425.59
2023-04-02T13:34:40.154Z,102433.38
2023-04-02T13:37:07.172Z,102427.25
2023-04-02T13:39:34.299Z,102414.78
2023-04-02T13:42:03.510Z,102425.88
2023-04-02T13:44:32.941Z,102434.47
2023-04-02T13:47:01.096Z,102435.38
2023-04-02T13:49:29.288Z,102437.44
2023-04-02T13:52:03.119Z,102436.50
2023-04-02T13:54:49.417Z,102436.78
2023-04-02T13:57:16.933Z,102437.38
2023-04-02T13:59:44.065Z,102432.47
2023-04-02T14:02:19.013Z,102445.06
2023-04-02T14:04:51.242Z,102445.78
2023-04-02T14:07:30.680Z,102445.69
2023-04-02T14:09:57.686Z,102459.06
2023-04-02T14:12:39.046Z,102446.69
2023-04-02T14:15:16.205Z,102448.78
2023-04-02T14:17:51.043Z,102443.94
2023-04-02T14:20:23.963Z,102455.63
2023-04-02T14:23:42.998Z,102450.81
2023-04-02T14:26:16.398Z,102456.38
2023-04-02T14:28:57.316Z,102465.34
2023-04-02T14:31:28.745Z,102454.25
2023-04-02T14:34:33.346Z,102459.25
2023-04-02T14:37:00.301Z,102460.91
2023-04-02T14:39:53.442Z,102464.56
2023-04-02T14:42:27.623Z,102465.84
2023-04-02T14:45:05.414Z,102469.19
2023-04-02T14:47:43.055Z,102456.41
2023-04-02T14:50:19.520Z,102469.00
2023-04-02T14:52:55.162Z,102482.03
2023-04-02T14:55:34.545Z,102475.94
2023-04-02T14:58:04.708Z,102475.19
2023-04-02T15:00:45.946Z,102480.03
2023-04-02T15:03:37.497Z,102462.41
2023-04-02T15:06:12.442Z,102474.63
2023-04-02T15:08:58.623Z,102472.91
2023-04-02T15:11:33.361Z,102486.00
2023-04-02T15:14:12.290Z,102476.44
2023-04-02T15:16:39.520Z,102489.19
2023-04-02T15:19:12.574Z,102492.75
2023-04-02T15:21:57.552Z,102491.44
2023-04-02T15:25:00.724Z,102494.34
2023-04-02T15:27:31.556Z,102500.53
2023-04-02T15:30:11.457Z,102499.75
2023-04-02T15:32:39.781Z,102499.16
2023-04-02T15:35:27.536Z,102495.28
2023-04-02T15:38:15.883Z,102499.97
2023-04-02T15:40:51.632Z,102496.84
2023-04-02T15:43:42.547Z,102509.50
2023-04-02T15:46:28.855Z,102515.59
2023-04-02T15:49:17.231Z,102509.00
2023-04-02T15:52:08.148Z,102512.34
2023-04-02T15:54:58.609Z,102523.50
2023-04-02T15:57:32.320Z,102519.34
2023-04-02T16:00:23.818Z,102516.91
2023-04-02T16:02:51.175Z,102508.81
2023-04-02T16:05:39.245Z,102513.69
2023-04-02T16:08:43.079Z,102520.00
2023-04-02T16:11:13.177Z,102513.44
2023-04-02T16:13:42.394Z,102515.59
2023-04-02T16:16:20.457Z,102518.47
2023-04-02T16:19:17.173Z,102533.06
2023-04-02T16:22:17.138Z,102538.19
2023-04-02T16:24:48.703Z,102539.16
2023-04-02T16:27:34.446Z,102544.63
2023-04-02T16:30:13.248Z,102545.34
2023-04-02T16:32:55.539Z,102540.91
2023-04-02T16:38:32.696Z,102548.66
2023-04-02T16:41:42.491Z,102547.94
2023-04-02T16:44:43.218Z,102546.63
2023-04-02T16:47:28.611Z,102560.38
2023-04-02T16:50:07.658Z,102557.16
2023-04-02T16:52:49.131Z,102569.22
2023-04-02T16:55:25.964Z,102570.53
2023-04-02T16:57:58.794Z,102580.69
2023-04-02T17:00:32.390Z,102584.41
2023-04-02T17:03:18.222Z,102594.06
2023-04-02T17:06:03.969Z,102586.03
2023-04-02T17:08:45.667Z,102588.16
2023-04-02T17:11:24.428Z,102585.72
2023-04-02T17:14:09.453Z,102606.63
2023-04-02T17:16:42.740Z,102615.06
2023-04-02T17:19:13.065Z,102613.31
2023-04-02T17:21:44.700Z,102624.41
2023-04-02T17:24:17.221Z,102621.78
2023-04-02T17:26:47.969Z,102630.47
2023-04-02T17:29:24.079Z,102623.47
2023-04-02T17:31:53.932Z,102627.94
2023-04-02T17:34:23.839Z,102636.44
2023-04-02T17:37:28.690Z,102646.09
2023-04-02T17:40:17.380Z,102649.13
2023-04-02T17:43:00.803Z,102642.44
2023-04-02T17:45:55.382Z,102651.63
2023-04-02T17:48:31.591Z,102653.66
2023-04-02T17:51:16.958Z,102658.56
2023-04-02T17:53:57.888Z,102658.91
2023-04-02T17:56:52.988Z,102668.97
2023-04-02T17:59:23.599Z,102668.38
2023-04-02T18:02:06.995Z,102681.06
2023-04-02T18:04:42.602Z,102682.78
2023-04-02T18:07:38.196Z,102666.91
2023-04-02T18:10:14.779Z,102673.28
2023-04-02T18:13:07.690Z,102690.66
2023-04-02T18:15:55.502Z,102694.53
2023-04-02T18:18:45.071Z,102690.41
2023-04-02T18:21:21.928Z,102695.94
2023-04-02T18:24:02.741Z,102702.47
2023-04-02T18:26:38.985Z,102702.78
2023-04-02T18:29:24.553Z,102699.97
2023-04-02T18:32:29.130Z,102708.81
2023-04-02T18:35:00.316Z,102719.13
2023-04-02T18:37:32.816Z,102728.16
2023-04-02T18:40:08.588Z,102728.56
2023-04-02T18:42:52.081Z,102711.66
2023-04-02T18:45:41.448Z,102733.91
2023-04-02T18:48:50.396Z,102736.16
2023-04-02T18:51:27.139Z,102738.88
2023-04-02T18:54:18.305Z,102743.00
2023-04-02T18:56:45.610Z,102751.00
2023-04-02T18:59:51.973Z,102752.69
2023-04-02T19:02:26.015Z,102762.91
2023-04-02T19:05:05.010Z,102759.38
2023-04-02T19:07:38.733Z,102762.41
2023-04-02T19:10:25.884Z,102775.19
2023-04-02T19:12:52.900Z,102769.75
2023-04-02T19:15:23.492Z,102768.16
2023-04-02T19:18:19.269Z,102790.47
2023-04-02T19:20:56.000Z,102791.69
2023-04-02T19:23:39.893Z,102794.13
2023-04-02T19:26:12.199Z,102800.66
2023-04-02T19:28:42.458Z,102810.00
2023-04-02T19:31:43.790Z,102811.69
2023-04-02T19:34:43.296Z,102807.38
2023-04-02T19:37:38.336Z,102810.25
2023-04-02T19:40:35.792Z,102805.56
2023-04-02T19:43:03.168Z,102808.31
2023-04-02T19:45:46.862Z,102819.81
2023-04-02T19:48:26.819Z,102820.44
2023-04-02T19:50:54.244Z,102823.22
2023-04-02T19:53:21.568Z,102828.47
2023-04-02T19:55:48.843Z,102834.31
2023-04-02T19:58:29.908Z,102833.22
2023-04-02T20:00:57.358Z,102821.16
2023-04-02T20:03:24.646Z,102826.22
2023-04-02T20:05:52.683Z,102838.50
2023-04-02T20:08:20.160Z,102835.13
2023-04-02T20:10:47.568Z,102831.56
2023-04-02T20:13:14.852Z,102835.06
2023-04-02T20:15:42.430Z,102838.41
2023-04-02T20:18:10.562Z,102843.56
2023-04-02T20:20:39.187Z,102844.25
2023-04-02T20:23:07.636Z,102849.41
2023-04-02T20:25:34.756Z,102850.47
2023-04-02T20:28:03.867Z,102855.53
2023-04-02T20:30:32.606Z,102857.00
2023-04-02T20:33:00.296Z,102863.66
2023-04-02T20:35:27.609Z,102860.38
2023-04-02T20:37:54.735Z,102874.00
2023-04-02T20:40:22.588Z,102870.34
2023-04-02T20:42:52.096Z,102862.59
2023-04-02T20:45:19.296Z,102870.50
2023-04-02T20:47:46.441Z,102869.00
2023-04-02T20:50:13.594Z,102875.53
2023-04-02T20:52:41.602Z,102885.91
2023-04-02T20:55:09.513Z,102884.50
2023-04-02T20:57:36.893Z,102887.06
2023-04-02T21:00:06.639Z,102891.91
2023-04-02T21:02:34.263Z,102895.16
2023-04-02T21:05:01.365Z,102902.09
2023-04-02T21:07:28.467Z,102901.78
2023-04-02T21:09:55.512Z,102903.03
2023-04-02T21:12:24.941Z,102915.00
2023-04-02T21:14:57.249Z,102920.81
2023-04-02T21:17:24.647Z,102920.41
2023-04-02T21:19:52.262Z,102920.09
2023-04-02T21:22:19.341Z,102924.31
2023-04-02T21:24:46.455Z,102915.72
2023-04-02T21:27:13.741Z,102922.66
2023-04-02T21:29:41.479Z,102924.22
2023-04-02T21:32:20.361Z,102934.13
2023-04-02T21:34:48.583Z,102936.06
2023-04-02T21:37:15.680Z,102936.28
2023-04-02T21:39:42.740Z,102934.50
2023-04-02T21:42:11.399Z,102948.28
2023-04-02T21:44:38.536Z,102938.78
2023-04-02T21:47:05.814Z,102943.91
2023-04-02T21:49:33.032Z,102943.69
2023-04-02T21:52:00.152Z,102951.84
2023-04-02T21:54:27.238Z,102949.84
2023-04-02T21:56:54.296Z,102933.22
2023-04-02T21:59:21.504Z,102949.28
2023-04-02T22:01:52.202Z,102941.03
2023-04-02T22:04:22.604Z,102935.56
2023-04-02T22:06:51.214Z,102935.13
2023-04-02T22:09:22.364Z,102934.69
2023-04-02T22:11:56.108Z,102936.78
2023-04-02T22:14:23.320Z,102947.94
2023-04-02T22:16:50.369Z,102954.19
2023-04-02T22:19:20.345Z,102938.13
2023-04-02T22:21:47.771Z,102946.72
2023-04-02T22:24:18.792Z,102938.69
2023-04-02T22:26:46.155Z,102949.06
2023-04-02T22:29:13.611Z,102956.75
2023-04-02T22:31:41.534Z,102952.19
2023-04-02T22:34:08.638Z,102950.16
2023-04-02T22:36:35.905Z,102952.63
2023-04-02T22:39:06.664Z,102955.72
2023-04-02T22:41:33.789Z,102956.28
2023-04-02T22:44:02.341Z,102954.75
2023-04-02T22:46:30.232Z,102956.38
2023-04-02T22:48:57.520Z,102961.19
2023-04-02T22:51:25.990Z,102959.94
2023-04-02T22:53:54.875Z,102943.41
2023-04-02T22:56:28.736Z,102965.03
2023-04-02T22:58:56.023Z,102971.25
2023-04-02T23:01:31.550Z,102963.00
2023-04-02T23:03:58.996Z,102959.16
2023-04-02T23:06:26.776Z,102974.03
2023-04-02T23:08:53.991Z,102959.59
2023-04-02T23:11:23.735Z,102978.41
2023-04-02T23:13:53.436Z,102979.94
2023-04-02T23:16:21.387Z,102974.03
2023-04-02T23:18:49.128Z,102973.22
2023-04-02T23:21:17.906Z,102975.88
2023-04-02T23:23:46.348Z,102983.34
2023-04-02T23:26:23.029Z,102979.78
2023-04-02T23:28:51.002Z,102982.56
2023-04-02T23:31:21.496Z,102985.72
2023-04-02T23:33:49.287Z,102979.69
2023-04-02T23:36:26.223Z,102983.03
2023-04-02T23:38:55.697Z,102982.81
2023-04-02T23:41:24.535Z,102987.03
2023-04-02T23:43:52.056Z,102981.31
2023-04-02T23:46:19.829Z,102981.84
2023-04-02T23:48:47.536Z,102989.91
2023-04-02T23:51:14.620Z,102999.50
2023-04-02T23:53:43.466Z,102990.16
2023-04-02T23:56:11.334Z,102986.59
2023-04-02T23:58:38.345Z,102999.44
